Time;durP1;ratioP1;P1;durP2;ratioP2;P2;SDS_P1;SDS_P2;PMS_P1;PMS_P2;Temp;Humidity;BMP_temperature;BMP_pressure;BME280_temperature;BME280_humidity;BME280_pressure;Samples;Min_cycle;Max_cycle;Signal;HPM_P1;HPM_P2
2024/01/18 00:00:17;;;;;;;26.38;17.98;;;-3.60;99.90;;;;;;6098084;23;20041;-74
2024/01/18 00:02:43;;;;;;;32.00;18.52;;;-3.70;99.90;;;;;;6098440;23;20089;-75
2024/01/18 00:05:09;;;;;;;32.15;19.17;;;-3.70;99.90;;;;;;6098634;23;20014;-75
2024/01/18 00:07:35;;;;;;;25.17;18.27;;;-3.70;99.90;;;;;;6098770;23;20029;-75
2024/01/18 00:10:00;;;;;;;28.00;18.48;;;-3.80;99.90;;;;;;6098188;23;20014;-75
2024/01/18 00:12:26;;;;;;;35.28;19.60;;;-3.80;99.90;;;;;;6098638;23;20010;-74
2024/01/18 00:14:52;;;;;;;34.72;19.13;;;-3.80;99.90;;;;;;6098419;23;20014;-73
2024/01/18 00:17:17;;;;;;;27.33;18.10;;;-3.70;99.90;;;;;;6098404;23;20089;-74
2024/01/18 00:19:43;;;;;;;28.17;16.17;;;-3.70;99.90;;;;;;6098478;23;20399;-74
2024/01/18 00:22:09;;;;;;;28.30;16.08;;;-3.60;99.90;;;;;;6098487;23;20014;-73
2024/01/18 00:24:34;;;;;;;20.23;14.00;;;-3.60;99.90;;;;;;6098469;23;20018;-74
2024/01/18 00:27:00;;;;;;;27.13;13.90;;;-3.50;99.90;;;;;;6097583;23;20534;-73
2024/01/18 00:29:26;;;;;;;21.92;12.70;;;-3.30;99.90;;;;;;6098289;23;20018;-74
2024/01/18 00:31:52;;;;;;;21.50;11.50;;;-3.20;99.90;;;;;;6098430;23;20077;-73
2024/01/18 00:34:18;;;;;;;17.48;10.68;;;-3.10;99.90;;;;;;6122455;23;20093;-73
2024/01/18 00:36:46;;;;;;;21.73;11.68;;;-3.00;99.90;;;;;;6122132;23;20014;-73
2024/01/18 00:39:16;;;;;;;21.30;11.68;;;-3.00;99.90;;;;;;6098468;23;20021;-73
2024/01/18 00:41:42;;;;;;;22.52;11.43;;;-2.90;99.90;;;;;;6098957;23;20014;-73
2024/01/18 00:44:08;;;;;;;19.83;12.13;;;-2.90;99.90;;;;;;6099919;23;20045;-73
2024/01/18 00:46:34;;;;;;;18.25;10.93;;;-2.90;99.90;;;;;;6100231;23;20026;-74
2024/01/18 00:49:00;;;;;;;20.13;12.13;;;-2.90;99.90;;;;;;6099953;23;20010;-74
2024/01/18 00:51:26;;;;;;;17.90;11.90;;;-2.90;99.90;;;;;;6099785;23;20378;-74
2024/01/18 00:53:52;;;;;;;20.25;11.05;;;-3.00;99.90;;;;;;6100128;23;20068;-74
2024/01/18 00:56:17;;;;;;;19.00;10.10;;;-3.00;99.90;;;;;;6125020;23;20465;-74
2024/01/18 00:58:44;;;;;;;13.18;8.55;;;-3.10;99.90;;;;;;6099841;23;20014;-74
2024/01/18 01:01:10;;;;;;;17.63;8.35;;;-3.10;99.90;;;;;;6124326;23;20466;-74
2024/01/18 01:03:35;;;;;;;11.10;8.25;;;-3.10;99.90;;;;;;6123514;23;20014;-74
2024/01/18 01:06:01;;;;;;;14.23;9.18;;;-3.00;99.90;;;;;;6124859;23;20014;-74
2024/01/18 01:08:27;;;;;;;15.10;9.35;;;-3.10;99.90;;;;;;6123991;23;20077;-74
2024/01/18 01:10:53;;;;;;;15.43;8.90;;;-3.00;99.90;;;;;;6124322;23;20101;-74
2024/01/18 01:13:18;;;;;;;14.27;8.45;;;-3.00;99.90;;;;;;6123924;23;20144;-74
2024/01/18 01:15:44;;;;;;;16.50;8.48;;;-3.10;99.90;;;;;;6123975;23;20080;-74
2024/01/18 01:18:10;;;;;;;15.20;8.38;;;-3.10;99.90;;;;;;6124060;23;20014;-74
2024/01/18 01:20:36;;;;;;;12.95;8.95;;;-3.10;99.90;;;;;;6124260;23;20021;-74
2024/01/18 01:23:03;;;;;;;11.95;7.70;;;-3.00;99.90;;;;;;6123907;23;20024;-74
2024/01/18 01:25:29;;;;;;;15.20;8.95;;;-3.00;99.90;;;;;;6124331;23;20014;-73
2024/01/18 01:27:54;;;;;;;12.30;7.97;;;-3.00;99.90;;;;;;6124016;23;20530;-74
2024/01/18 01:30:20;;;;;;;14.77;8.45;;;-3.00;99.90;;;;;;6124318;23;20061;-73
2024/01/18 01:32:47;;;;;;;11.35;6.90;;;-2.90;99.90;;;;;;6123669;23;20013;-74
2024/01/18 01:35:13;;;;;;;14.48;8.00;;;-2.90;99.90;;;;;;6124080;23;20014;-74
2024/01/18 01:37:38;;;;;;;11.13;7.00;;;-2.80;99.90;;;;;;6123980;23;20014;-73
2024/01/18 01:40:05;;;;;;;10.65;6.15;;;-2.80;99.90;;;;;;6124155;23;20079;-74
2024/01/18 01:42:31;;;;;;;11.40;6.80;;;-2.60;99.90;;;;;;6123574;23;20006;-74
2024/01/18 01:44:56;;;;;;;14.88;6.75;;;-2.50;99.90;;;;;;6123737;23;20455;-74
2024/01/18 01:47:22;;;;;;;13.88;5.93;;;-2.50;99.90;;;;;;6124027;23;20044;-74
2024/01/18 01:49:48;;;;;;;13.23;5.82;;;-2.40;99.90;;;;;;6124070;23;20014;-74
2024/01/18 01:52:15;;;;;;;10.52;5.07;;;-2.40;99.90;;;;;;6123932;23;20021;-74
2024/01/18 01:54:42;;;;;;;8.65;4.95;;;-2.40;99.90;;;;;;6123406;23;20013;-74
2024/01/18 01:57:08;;;;;;;12.82;4.93;;;-2.40;99.90;;;;;;6123376;23;20022;-74
2024/01/18 01:59:34;;;;;;;18.40;5.25;;;-2.30;99.90;;;;;;6123838;23;20010;-73
2024/01/18 02:02:00;;;;;;;9.93;5.30;;;-2.30;99.90;;;;;;6123825;23;20006;-74
2024/01/18 02:04:26;;;;;;;12.38;5.25;;;-2.30;99.90;;;;;;6123901;23;20064;-74
2024/01/18 02:06:55;;;;;;;8.73;5.13;;;-2.40;99.90;;;;;;6123475;23;20052;-74
2024/01/18 02:09:21;;;;;;;10.73;4.70;;;-2.50;99.90;;;;;;6123240;23;20014;-74
2024/01/18 02:11:47;;;;;;;7.30;4.65;;;-2.60;99.90;;;;;;6123879;23;20014;-74
2024/01/18 02:14:13;;;;;;;12.23;4.85;;;-2.70;99.90;;;;;;6123573;23;20014;-74
2024/01/18 02:16:39;;;;;;;7.95;4.32;;;-2.80;99.90;;;;;;6123461;23;20010;-73
2024/01/18 02:19:05;;;;;;;8.77;4.57;;;-2.80;99.90;;;;;;6123508;23;20112;-73
2024/01/18 02:21:30;;;;;;;8.68;3.88;;;-2.90;99.90;;;;;;6124035;23;20450;-74
2024/01/18 02:24:08;;;;;;;8.57;4.00;;;-3.00;99.90;;;;;;6123129;23;20355;-73
2024/01/18 02:26:33;;;;;;;10.50;4.63;;;-2.90;99.90;;;;;;6124015;23;20022;-73
2024/01/18 02:28:59;;;;;;;6.70;3.97;;;-2.90;99.90;;;;;;6123276;23;20009;-74
2024/01/18 02:31:25;;;;;;;7.45;4.47;;;-3.00;99.90;;;;;;6123926;23;20132;-74
2024/01/18 02:33:51;;;;;;;8.90;4.00;;;-3.10;99.90;;;;;;6123407;23;20010;-74
2024/01/18 02:36:19;;;;;;;8.55;4.15;;;-3.20;99.90;;;;;;6123447;23;20020;-74
2024/01/18 02:38:45;;;;;;;6.95;4.00;;;-3.20;99.90;;;;;;6123706;23;20470;-74
2024/01/18 02:41:11;;;;;;;7.15;4.13;;;-3.30;99.90;;;;;;6123928;23;20009;-73
2024/01/18 02:43:37;;;;;;;7.03;3.75;;;-3.40;99.90;;;;;;6123269;23;20312;-73
2024/01/18 02:46:03;;;;;;;5.35;3.40;;;-3.50;99.90;;;;;;6123472;23;20021;-74
2024/01/18 02:48:29;;;;;;;7.43;4.35;;;-3.50;99.90;;;;;;6123589;23;20014;-74
2024/01/18 02:50:54;;;;;;;7.07;4.15;;;-3.60;99.90;;;;;;6123341;23;20029;-73
2024/01/18 02:53:20;;;;;;;11.18;4.00;;;-3.60;99.90;;;;;;6122669;23;20028;-73
2024/01/18 02:55:47;;;;;;;7.75;4.00;;;-3.70;99.90;;;;;;6123346;23;20018;-74
2024/01/18 02:58:12;;;;;;;10.55;3.95;;;-3.70;99.90;;;;;;6099112;23;20032;-73
2024/01/18 03:00:38;;;;;;;10.65;3.70;;;-3.70;99.90;;;;;;6123198;23;20466;-74
2024/01/18 03:03:04;;;;;;;5.72;3.50;;;-3.80;99.90;;;;;;6122973;23;20105;-73
2024/01/18 03:05:31;;;;;;;6.00;3.42;;;-3.80;99.90;;;;;;6123792;23;20018;-73
2024/01/18 03:07:57;;;;;;;6.72;3.30;;;-3.90;99.90;;;;;;6122976;23;20010;-73
2024/01/18 03:10:22;;;;;;;5.00;3.50;;;-3.90;99.90;;;;;;6098647;23;20088;-73
2024/01/18 03:12:48;;;;;;;6.38;3.58;;;-3.80;99.90;;;;;;6123601;23;20013;-73
2024/01/18 03:15:14;;;;;;;6.85;3.10;;;-3.90;99.90;;;;;;6122849;23;20041;-73
2024/01/18 03:17:40;;;;;;;8.13;2.92;;;-3.90;99.90;;;;;;6122881;23;20034;-74
2024/01/18 03:20:07;;;;;;;10.15;3.50;;;-3.90;99.90;;;;;;6122922;23;20076;-73
2024/01/18 03:22:41;;;;;;;6.57;3.05;;;-4.00;99.90;;;;;;6123275;23;20391;-73
2024/01/18 03:25:08;;;;;;;8.13;3.40;;;-4.10;99.90;;;;;;6123010;23;20382;-74
2024/01/18 03:27:34;;;;;;;5.55;3.08;;;-4.00;99.90;;;;;;6122886;23;20041;-73
2024/01/18 03:29:59;;;;;;;6.70;3.22;;;-4.10;99.90;;;;;;6123159;23;20341;-73
2024/01/18 03:32:25;;;;;;;4.55;2.95;;;-4.20;99.90;;;;;;6123132;23;20017;-74
2024/01/18 03:34:51;;;;;;;6.63;3.17;;;-4.20;99.90;;;;;;6122642;23;20025;-73
2024/01/18 03:37:17;;;;;;;5.65;2.55;;;-4.20;99.90;;;;;;6122583;23;20006;-73
2024/01/18 03:39:43;;;;;;;4.53;2.65;;;-4.30;99.90;;;;;;6122852;23;20006;-73
2024/01/18 03:42:09;;;;;;;6.90;2.65;;;-4.30;99.90;;;;;;6122624;23;20395;-73
2024/01/18 03:44:34;;;;;;;4.05;2.40;;;-4.30;99.90;;;;;;6122717;23;20022;-74
2024/01/18 03:47:00;;;;;;;6.03;2.58;;;-4.30;99.90;;;;;;6122162;23;20053;-74
2024/01/18 03:49:26;;;;;;;9.95;2.75;;;-4.40;99.90;;;;;;6122632;23;20064;-73
2024/01/18 03:51:52;;;;;;;6.18;2.97;;;-4.40;99.90;;;;;;6122639;23;20351;-74
2024/01/18 03:54:22;;;;;;;4.78;2.33;;;-4.40;99.90;;;;;;6122677;23;20093;-73
2024/01/18 03:56:48;;;;;;;7.57;2.83;;;-4.40;99.90;;;;;;6122783;23;20017;-73
2024/01/18 03:59:14;;;;;;;11.02;2.22;;;-4.40;99.90;;;;;;6122533;23;20084;-74
2024/01/18 04:01:40;;;;;;;7.03;2.65;;;-4.50;99.90;;;;;;6123039;23;20073;-74
2024/01/18 04:04:06;;;;;;;7.32;2.35;;;-4.50;99.90;;;;;;6122638;23;20013;-74
2024/01/18 04:06:32;;;;;;;4.70;2.53;;;-4.50;99.90;;;;;;6122875;23;20017;-73
2024/01/18 04:08:58;;;;;;;4.10;2.30;;;-4.50;99.90;;;;;;6122629;23;20006;-73
2024/01/18 04:11:23;;;;;;;4.75;2.67;;;-4.40;99.90;;;;;;6122419;23;20014;-74
2024/01/18 04:13:49;;;;;;;7.63;2.60;;;-4.50;99.90;;;;;;6122423;23;20017;-74
2024/01/18 04:16:14;;;;;;;7.00;2.60;;;-4.50;99.90;;;;;;6123145;23;20081;-73
2024/01/18 04:18:40;;;;;;;9.57;2.80;;;-4.50;99.90;;;;;;6124507;23;20394;-74
2024/01/18 04:21:06;;;;;;;3.67;2.53;;;-4.50;99.90;;;;;;6124864;23;20065;-73
2024/01/18 04:23:32;;;;;;;2.03;1.70;;;-4.50;99.90;;;;;;6124560;23;20394;-73
2024/01/18 04:25:57;;;;;;;6.47;2.72;;;-4.40;99.90;;;;;;6100697;23;20446;-73
2024/01/18 04:28:23;;;;;;;4.40;2.13;;;-4.30;99.90;;;;;;6100229;23;20013;-73
2024/01/18 04:30:48;;;;;;;4.55;1.98;;;-4.20;99.90;;;;;;6124613;23;20020;-73
2024/01/18 04:33:14;;;;;;;5.05;1.95;;;-4.10;99.90;;;;;;6124804;23;20338;-73
2024/01/18 04:35:40;;;;;;;5.63;2.10;;;-4.00;99.90;;;;;;6124596;23;20391;-73
2024/01/18 04:38:09;;;;;;;4.03;1.83;;;-3.90;99.90;;;;;;6124595;23;20014;-73
2024/01/18 04:40:34;;;;;;;3.45;2.35;;;-3.90;99.90;;;;;;6124605;23;20028;-73
2024/01/18 04:43:00;;;;;;;6.88;3.38;;;-3.90;99.90;;;;;;6124228;23;20006;-73
2024/01/18 04:45:25;;;;;;;7.78;3.80;;;-3.80;99.90;;;;;;6124942;23;20014;-73
2024/01/18 04:47:56;;;;;;;13.15;6.55;;;-3.60;99.90;;;;;;6124892;23;20041;-73
2024/01/18 04:50:24;;;;;;;20.60;11.15;;;-3.50;99.90;;;;;;6124100;23;20088;-73
2024/01/18 04:52:50;;;;;;;20.17;8.50;;;-3.50;99.90;;;;;;6099878;23;20013;-73
2024/01/18 04:55:16;;;;;;;13.48;6.15;;;-3.50;99.90;;;;;;6124577;23;20050;-73
2024/01/18 04:57:42;;;;;;;11.18;5.43;;;-3.40;99.90;;;;;;6124331;23;20021;-73
2024/01/18 05:00:10;;;;;;;13.35;6.05;;;-3.40;99.90;;;;;;6124713;23;20064;-73
2024/01/18 05:02:41;;;;;;;10.00;6.35;;;-3.40;99.90;;;;;;6124367;23;20010;-73
2024/01/18 05:05:08;;;;;;;13.18;5.95;;;-3.50;99.90;;;;;;6123495;23;20021;-73
2024/01/18 05:07:43;;;;;;;6.70;4.13;;;-3.60;99.90;;;;;;6124103;23;20447;-73
2024/01/18 05:10:10;;;;;;;9.20;3.85;;;-3.70;99.90;;;;;;6124294;23;20014;-73
2024/01/18 05:12:36;;;;;;;11.80;3.80;;;-3.70;99.90;;;;;;6100242;23;20386;-73
2024/01/18 05:15:03;;;;;;;3.97;2.63;;;-3.80;99.90;;;;;;6099442;23;20021;-73
2024/01/18 05:17:34;;;;;;;5.65;3.55;;;-3.90;99.90;;;;;;6124054;23;20006;-73
2024/01/18 05:20:05;;;;;;;3.63;2.60;;;-4.00;99.90;;;;;;6124514;23;20021;-73
2024/01/18 05:22:34;;;;;;;5.32;3.00;;;-4.10;99.90;;;;;;6124141;23;20013;-73
2024/01/18 05:25:00;;;;;;;3.97;2.20;;;-4.10;99.90;;;;;;6099577;23;20013;-73
2024/01/18 05:27:30;;;;;;;9.60;2.92;;;-4.30;99.90;;;;;;6126522;23;20009;-74
2024/01/18 05:29:56;;;;;;;7.18;1.85;;;-4.30;99.90;;;;;;6123199;23;20056;-73
2024/01/18 05:32:22;;;;;;;3.95;1.98;;;-4.30;99.90;;;;;;6099436;23;20042;-73
2024/01/18 05:34:52;;;;;;;6.07;2.05;;;-4.30;99.90;;;;;;6124036;23;20017;-73
2024/01/18 05:37:18;;;;;;;4.15;2.03;;;-4.40;99.90;;;;;;6123851;23;20100;-73
2024/01/18 05:39:44;;;;;;;4.63;1.55;;;-4.50;99.90;;;;;;6124228;23;20006;-74
2024/01/18 05:42:10;;;;;;;3.70;1.48;;;-4.50;99.90;;;;;;6124290;23;20014;-73
2024/01/18 05:44:36;;;;;;;3.97;2.65;;;-4.40;99.90;;;;;;6123217;23;20018;-75
2024/01/18 05:47:02;;;;;;;6.75;2.05;;;-4.40;99.90;;;;;;6123466;23;20049;-76
2024/01/18 05:49:28;;;;;;;4.35;2.55;;;-4.20;99.90;;;;;;6124063;23;20076;-75
2024/01/18 05:51:54;;;;;;;4.07;2.03;;;-4.20;99.90;;;;;;6123802;23;20403;-76
2024/01/18 05:54:19;;;;;;;3.05;1.52;;;-4.20;99.90;;;;;;6125117;23;20013;-73
2024/01/18 05:56:46;;;;;;;4.80;1.80;;;-4.20;99.90;;;;;;6123776;23;20010;-73
2024/01/18 05:59:13;;;;;;;5.68;1.98;;;-4.20;99.90;;;;;;6123163;23;20451;-76
2024/01/18 06:01:38;;;;;;;4.18;2.00;;;-4.30;99.90;;;;;;6123111;23;20036;-73
2024/01/18 06:04:04;;;;;;;6.18;1.45;;;-4.20;99.90;;;;;;6125077;23;20419;-74
2024/01/18 06:06:31;;;;;;;4.35;1.77;;;-4.20;99.90;;;;;;6122913;23;20018;-73
2024/01/18 06:08:57;;;;;;;5.45;2.00;;;-4.10;99.90;;;;;;6123675;23;20020;-73
2024/01/18 06:11:23;;;;;;;4.65;2.22;;;-4.20;99.90;;;;;;6123401;23;20013;-74
2024/01/18 06:13:48;;;;;;;4.43;2.22;;;-4.10;99.90;;;;;;6098110;23;20006;-73
2024/01/18 06:16:15;;;;;;;7.35;1.75;;;-4.10;99.90;;;;;;6123084;23;20058;-74
2024/01/18 06:18:42;;;;;;;6.55;2.05;;;-4.20;99.90;;;;;;6123841;23;20014;-73
2024/01/18 06:21:09;;;;;;;6.97;2.28;;;-4.30;99.90;;;;;;6125535;23;20009;-72
2024/01/18 06:23:35;;;;;;;6.53;1.70;;;-4.30;99.90;;;;;;6123445;23;20356;-73
2024/01/18 06:26:01;;;;;;;1.70;1.25;;;-4.30;99.90;;;;;;6123464;23;20014;-75
2024/01/18 06:28:27;;;;;;;3.42;1.58;;;-4.30;99.90;;;;;;6121186;23;20061;-75
2024/01/18 06:30:53;;;;;;;6.72;1.48;;;-4.30;99.90;;;;;;6121648;23;20105;-74
2024/01/18 06:33:19;;;;;;;2.92;1.23;;;-4.20;99.90;;;;;;6122116;23;20104;-74
2024/01/18 06:35:44;;;;;;;8.07;2.17;;;-4.10;99.90;;;;;;6122261;23;20022;-74
2024/01/18 06:38:10;;;;;;;3.33;1.60;;;-3.90;99.90;;;;;;6122459;23;20033;-74
2024/01/18 06:40:36;;;;;;;3.40;1.50;;;-3.90;99.90;;;;;;6121691;23;20049;-74
2024/01/18 06:43:01;;;;;;;4.00;1.58;;;-3.70;99.90;;;;;;6121938;23;20009;-75
2024/01/18 06:45:27;;;;;;;2.25;1.50;;;-3.60;99.90;;;;;;6122202;23;20013;-74
2024/01/18 06:47:53;;;;;;;2.25;1.30;;;-3.50;99.90;;;;;;6122097;23;20451;-74
2024/01/18 06:50:18;;;;;;;5.57;1.30;;;-3.50;99.90;;;;;;6122410;23;20013;-74
2024/01/18 06:52:44;;;;;;;2.03;1.33;;;-3.50;99.90;;;;;;6121982;23;20149;-75
2024/01/18 06:55:10;;;;;;;1.95;1.58;;;-3.50;99.90;;;;;;6121937;23;20050;-74
2024/01/18 06:57:35;;;;;;;4.28;1.10;;;-3.60;99.90;;;;;;6121893;23;20010;-74
2024/01/18 07:00:01;;;;;;;2.13;1.35;;;-3.60;99.90;;;;;;6122251;23;20009;-74
2024/01/18 07:02:26;;;;;;;6.07;1.58;;;-3.60;99.90;;;;;;6121924;23;20451;-74
2024/01/18 07:04:52;;;;;;;2.00;1.23;;;-3.60;99.90;;;;;;6122228;23;20096;-74
2024/01/18 07:07:18;;;;;;;2.47;1.38;;;-3.60;99.90;;;;;;6121857;23;20053;-75
2024/01/18 07:09:43;;;;;;;2.22;1.35;;;-3.50;99.90;;;;;;6122335;23;20096;-74
2024/01/18 07:12:10;;;;;;;1.08;0.93;;;-3.50;99.90;;;;;;6121881;23;20014;-74
2024/01/18 07:14:36;;;;;;;4.15;1.50;;;-3.40;99.90;;;;;;6122141;23;20014;-74
2024/01/18 07:17:01;;;;;;;6.05;1.85;;;-3.50;99.90;;;;;;6122239;23;20010;-74
2024/01/18 07:19:27;;;;;;;2.55;1.58;;;-3.60;99.90;;;;;;6121820;23;20022;-74
2024/01/18 07:21:53;;;;;;;2.78;1.00;;;-3.60;99.90;;;;;;6122327;23;20014;-74
2024/01/18 07:24:21;;;;;;;4.25;1.40;;;-3.70;99.90;;;;;;6121855;23;20010;-75
2024/01/18 07:26:47;;;;;;;3.40;1.33;;;-3.70;99.90;;;;;;6075707;23;1081560;-74
2024/01/18 07:29:13;;;;;;;8.65;1.23;;;-3.80;99.90;;;;;;6123359;23;20092;-74
2024/01/18 07:31:39;;;;;;;11.93;2.00;;;-3.90;99.90;;;;;;6123058;23;20040;-75
2024/01/18 07:34:04;;;;;;;5.45;1.13;;;-3.90;99.90;;;;;;6122693;23;20399;-76
2024/01/18 07:36:30;;;;;;;4.30;1.17;;;-4.00;99.90;;;;;;6123011;23;20016;-74
2024/01/18 07:38:57;;;;;;;4.55;1.52;;;-4.00;99.90;;;;;;6123156;23;20031;-74
2024/01/18 07:41:22;;;;;;;3.42;1.33;;;-4.00;99.90;;;;;;6123261;23;20017;-74
2024/01/18 07:43:48;;;;;;;3.40;1.33;;;-4.10;99.90;;;;;;6123341;23;20104;-74
2024/01/18 07:46:14;;;;;;;2.58;1.05;;;-4.10;99.90;;;;;;6123308;23;20014;-74
2024/01/18 07:48:39;;;;;;;2.17;1.10;;;-4.20;99.90;;;;;;6122736;23;20069;-77
2024/01/18 07:51:05;;;;;;;3.47;1.02;;;-4.20;99.90;;;;;;6122840;23;20020;-75
2024/01/18 07:53:30;;;;;;;2.58;0.98;;;-4.20;99.90;;;;;;6098446;23;20029;-74
2024/01/18 07:55:56;;;;;;;3.63;1.48;;;-4.30;99.90;;;;;;6122784;23;20076;-74
2024/01/18 07:58:22;;;;;;;3.67;1.23;;;-4.30;99.90;;;;;;6122820;23;20042;-74
2024/01/18 08:00:48;;;;;;;3.35;2.22;;;-4.30;99.90;;;;;;6122739;23;20443;-75
2024/01/18 08:03:13;;;;;;;4.90;2.15;;;-4.30;99.90;;;;;;6123158;23;20053;-75
2024/01/18 08:05:39;;;;;;;3.13;1.35;;;-4.30;99.90;;;;;;6122779;23;20049;-74
2024/01/18 08:08:05;;;;;;;3.03;1.52;;;-4.30;99.90;;;;;;6122728;23;20395;-74
2024/01/18 08:10:30;;;;;;;3.40;1.58;;;-4.30;99.90;;;;;;6122830;23;20350;-74
2024/01/18 08:12:56;;;;;;;9.52;1.67;;;-4.30;99.90;;;;;;6122824;23;20014;-74
2024/01/18 08:15:22;;;;;;;4.72;1.33;;;-4.30;99.90;;;;;;6122269;23;20346;-75
2024/01/18 08:17:47;;;;;;;4.18;1.45;;;-4.30;99.90;;;;;;6122683;23;20080;-74
2024/01/18 08:20:13;;;;;;;3.13;1.67;;;-4.30;99.90;;;;;;6122786;23;20085;-74
2024/01/18 08:22:42;;;;;;;8.35;1.40;;;-4.30;99.90;;;;;;6098546;23;20383;-74
2024/01/18 08:25:10;;;;;;;4.63;2.35;;;-4.30;99.90;;;;;;6122138;23;20386;-74
2024/01/18 08:27:40;;;;;;;5.95;1.85;;;-4.30;99.90;;;;;;6122563;23;20450;-74
2024/01/18 08:30:07;;;;;;;5.78;1.70;;;-4.20;99.90;;;;;;6123018;23;20089;-74
2024/01/18 08:32:34;;;;;;;5.60;1.63;;;-4.20;99.90;;;;;;6122641;23;20057;-74
2024/01/18 08:35:06;;;;;;;9.77;1.80;;;-4.20;99.90;;;;;;6098524;23;20014;-74
2024/01/18 08:37:35;;;;;;;;;;;-4.20;99.90;;;;;;6123488;23;20346;-74
2024/01/18 08:40:02;;;;;;;3.08;1.30;;;-4.10;99.90;;;;;;6097818;23;19913;-74
2024/01/18 08:42:28;;;;;;;5.90;1.52;;;-4.10;99.90;;;;;;6122987;23;20013;-74
2024/01/18 08:44:53;;;;;;;11.50;1.98;;;-4.00;99.90;;;;;;6122542;23;20010;-74
2024/01/18 08:47:19;;;;;;;4.32;1.98;;;-3.90;99.90;;;;;;6122957;23;20021;-75
2024/01/18 08:49:44;;;;;;;5.40;1.95;;;-3.90;99.90;;;;;;6098387;23;20018;-74
2024/01/18 08:52:10;;;;;;;3.70;1.80;;;-3.80;99.90;;;;;;6122762;23;20621;-74
2024/01/18 08:54:36;;;;;;;5.13;2.38;;;-3.80;99.90;;;;;;6122504;23;20014;-74
2024/01/18 08:57:02;;;;;;;4.68;2.30;;;-3.70;99.90;;;;;;6122797;23;20086;-74
2024/01/18 08:59:28;;;;;;;11.68;2.50;;;-3.70;99.90;;;;;;6122612;23;20016;-74
2024/01/18 09:01:54;;;;;;;4.55;2.13;;;-3.60;99.90;;;;;;6122915;23;20013;-75
2024/01/18 09:04:20;;;;;;;8.60;2.67;;;-3.50;99.90;;;;;;6123718;23;20458;-74
2024/01/18 09:06:46;;;;;;;4.30;2.33;;;-3.50;99.90;;;;;;6124138;23;20017;-74
2024/01/18 09:09:13;;;;;;;7.57;2.72;;;-3.30;99.90;;;;;;6124770;23;20089;-74
2024/01/18 09:11:39;;;;;;;4.88;2.60;;;-3.10;99.90;;;;;;6124770;23;20006;-74
2024/01/18 09:14:05;;;;;;;6.35;2.40;;;-2.90;99.90;;;;;;6124438;23;20081;-74
2024/01/18 09:16:31;;;;;;;7.50;2.28;;;-2.70;99.90;;;;;;6124544;23;20371;-74
2024/01/18 09:19:00;;;;;;;5.22;2.40;;;-2.60;99.90;;;;;;6124131;23;20017;-74
2024/01/18 09:21:26;;;;;;;6.47;2.55;;;-2.60;99.90;;;;;;6124181;23;20053;-74
2024/01/18 09:23:51;;;;;;;4.43;2.42;;;-2.50;99.90;;;;;;6123958;23;20081;-74
2024/01/18 09:26:17;;;;;;;7.00;2.40;;;-2.50;99.90;;;;;;6124492;23;20343;-74
2024/01/18 09:28:44;;;;;;;5.03;2.08;;;-2.30;99.90;;;;;;6123997;23;20014;-74
2024/01/18 09:31:10;;;;;;;8.75;2.08;;;-2.20;99.90;;;;;;6123897;23;20077;-74
2024/01/18 09:33:38;;;;;;;15.00;3.63;;;-2.10;99.90;;;;;;6099392;23;20018;-74
2024/01/18 09:36:05;;;;;;;8.65;2.25;;;-2.10;99.90;;;;;;6123991;23;20351;-75
2024/01/18 09:38:33;;;;;;;5.32;2.03;;;-2.00;99.90;;;;;;6123972;23;20085;-74
2024/01/18 09:41:07;;;;;;;2.60;2.08;;;-1.90;99.90;;;;;;6124373;23;20451;-75
2024/01/18 09:43:37;;;;;;;5.72;1.90;;;-1.80;99.90;;;;;;6123968;23;20010;-75
2024/01/18 09:46:07;;;;;;;4.45;1.70;;;-1.70;99.90;;;;;;6123996;23;20029;-74
2024/01/18 09:48:34;;;;;;;6.03;2.75;;;-1.60;99.90;;;;;;6124353;23;20533;-74
2024/01/18 09:51:00;;;;;;;9.35;2.03;;;-1.50;99.90;;;;;;6123977;23;20021;-75
2024/01/18 09:53:27;;;;;;;5.57;1.45;;;-1.40;99.90;;;;;;6123953;23;20010;-74
2024/01/18 09:55:54;;;;;;;7.00;1.98;;;-1.30;99.90;;;;;;6124185;23;20101;-75
2024/01/18 09:58:19;;;;;;;3.88;2.08;;;-1.10;99.90;;;;;;6123966;23;20013;-74
2024/01/18 10:00:55;;;;;;;7.13;1.85;;;-1.00;99.90;;;;;;6124131;23;20324;-75
2024/01/18 10:03:21;;;;;;;3.80;1.60;;;-0.90;99.90;;;;;;6124347;23;20010;-75
2024/01/18 10:05:47;;;;;;;10.02;5.35;;;-0.90;99.90;;;;;;6124243;23;20065;-75
2024/01/18 10:08:13;;;;;;;5.65;2.00;;;-0.70;99.90;;;;;;6123757;23;20018;-76
2024/01/18 10:10:38;;;;;;;4.25;2.00;;;-0.60;99.90;;;;;;6123964;23;20017;-74
2024/01/18 10:13:04;;;;;;;7.45;4.30;;;-0.50;99.90;;;;;;6123705;23;20080;-74
2024/01/18 10:15:32;;;;;;;3.95;1.65;;;-0.40;99.90;;;;;;6123171;23;20020;-75
2024/01/18 10:17:59;;;;;;;4.72;1.83;;;-0.40;99.90;;;;;;6123629;23;20006;-74
2024/01/18 10:20:26;;;;;;;3.38;1.98;;;-0.30;99.90;;;;;;6123881;23;20065;-74
2024/01/18 10:22:53;;;;;;;10.48;4.38;;;-0.20;99.90;;;;;;6123631;23;20009;-75
2024/01/18 10:25:27;;;;;;;5.78;2.38;;;-0.10;99.90;;;;;;6123725;23;20018;-74
2024/01/18 10:27:54;;;;;;;8.65;3.65;;;0.00;99.90;;;;;;6123766;23;20117;-74
2024/01/18 10:30:20;;;;;;;5.68;1.83;;;0.00;99.90;;;;;;6123663;23;20013;-75
2024/01/18 10:32:46;;;;;;;6.60;2.15;;;0.10;99.90;;;;;;6123687;23;20469;-75
2024/01/18 10:35:20;;;;;;;8.65;3.25;;;0.20;99.90;;;;;;6123305;23;20014;-74
2024/01/18 10:37:47;;;;;;;5.30;2.17;;;0.20;99.90;;;;;;6123438;23;20016;-75
2024/01/18 10:40:19;;;;;;;5.97;2.78;;;0.30;99.90;;;;;;6123957;23;20017;-74
2024/01/18 10:42:46;;;;;;;6.30;3.50;;;0.40;99.90;;;;;;6123499;23;20018;-74
2024/01/18 10:45:12;;;;;;;8.45;2.10;;;0.60;99.90;;;;;;6123416;23;20014;-74
2024/01/18 10:47:38;;;;;;;13.82;5.28;;;0.80;99.90;;;;;;6123754;23;20068;-74
2024/01/18 10:50:06;;;;;;;4.78;2.60;;;0.90;99.90;;;;;;6123146;23;20025;-74
2024/01/18 10:52:34;;;;;;;7.95;2.50;;;0.90;99.90;;;;;;6123153;23;20076;-75
2024/01/18 10:55:02;;;;;;;10.35;5.95;;;0.80;99.90;;;;;;6123125;23;20010;-75
2024/01/18 10:57:28;;;;;;;12.80;6.38;;;0.80;99.90;;;;;;6123409;23;20321;-75
2024/01/18 10:59:55;;;;;;;13.60;7.35;;;0.80;99.90;;;;;;6123349;23;20014;-75
2024/01/18 11:02:21;;;;;;;17.40;10.07;;;0.90;99.90;;;;;;6098773;23;20400;-75
2024/01/18 11:04:50;;;;;;;15.30;5.38;;;0.90;99.90;;;;;;6123080;23;20017;-75
2024/01/18 11:07:16;;;;;;;30.60;19.08;;;1.00;99.90;;;;;;6122896;23;20081;-75
2024/01/18 11:09:44;;;;;;;30.73;19.70;;;1.10;99.90;;;;;;6098671;23;20037;-74
2024/01/18 11:12:10;;;;;;;24.48;9.63;;;1.10;99.90;;;;;;6098834;23;20351;-75
2024/01/18 11:14:38;;;;;;;25.77;18.13;;;1.20;99.90;;;;;;6122365;23;20010;-75
2024/01/18 11:17:17;;;;;;;22.17;14.50;;;1.30;99.90;;;;;;6098834;23;20014;-75
2024/01/18 11:19:44;;;;;;;13.27;8.02;;;1.50;99.90;;;;;;6098400;23;20379;-75
2024/01/18 11:22:21;;;;;;;10.73;2.85;;;1.50;99.90;;;;;;6122675;23;20014;-75
2024/01/18 11:24:46;;;;;;;6.63;2.60;;;1.60;99.90;;;;;;6122435;23;20014;-75
2024/01/18 11:27:22;;;;;;;8.60;3.30;;;1.70;99.90;;;;;;6123800;23;20478;-75
2024/01/18 11:29:49;;;;;;;6.97;2.97;;;1.80;99.90;;;;;;6123222;23;20013;-75
2024/01/18 11:32:17;;;;;;;6.50;3.10;;;1.90;99.90;;;;;;6123548;23;20017;-75
2024/01/18 11:34:45;;;;;;;6.85;3.10;;;2.10;99.90;;;;;;6123357;23;20101;-75
2024/01/18 11:37:18;;;;;;;5.13;3.10;;;2.10;99.90;;;;;;6124153;23;20013;-75
2024/01/18 11:39:47;;;;;;;7.40;3.47;;;2.30;99.90;;;;;;6124579;23;20073;-75
2024/01/18 11:42:23;;;;;;;8.07;3.47;;;2.70;99.90;;;;;;6124880;23;20072;-75
2024/01/18 11:44:58;;;;;;;8.18;3.03;;;3.10;99.90;;;;;;6123985;23;20009;-75
2024/01/18 11:47:28;;;;;;;6.10;2.15;;;3.30;99.90;;;;;;6123889;23;20479;-75
2024/01/18 11:49:54;;;;;;;4.97;1.90;;;3.60;99.90;;;;;;6124994;23;20328;-75
2024/01/18 11:52:23;;;;;;;3.05;1.70;;;4.00;99.90;;;;;;6124485;23;20104;-76
2024/01/18 11:54:55;;;;;;;5.25;1.60;;;4.40;99.90;;;;;;6123482;23;20069;-75
2024/01/18 11:57:22;;;;;;;6.55;1.90;;;4.40;99.90;;;;;;6123078;23;20077;-75
2024/01/18 11:59:48;;;;;;;5.07;1.55;;;4.40;99.90;;;;;;6122552;23;20535;-75
2024/01/18 12:02:14;;;;;;;4.00;1.60;;;4.20;99.90;;;;;;6122879;23;20014;-75
2024/01/18 12:04:40;;;;;;;3.92;2.10;;;4.00;99.90;;;;;;6122995;23;20024;-75
2024/01/18 12:07:07;;;;;;;3.80;2.40;;;4.00;99.90;;;;;;6122896;23;20017;-75
2024/01/18 12:09:36;;;;;;;4.70;2.35;;;4.10;99.90;;;;;;6122967;23;20089;-75
2024/01/18 12:12:03;;;;;;;4.90;2.03;;;4.30;99.90;;;;;;6122798;23;20092;-75
2024/01/18 12:14:29;;;;;;;4.47;1.98;;;4.50;99.90;;;;;;6122439;23;20454;-75
2024/01/18 12:16:54;;;;;;;3.13;2.08;;;4.80;99.90;;;;;;6123266;23;20018;-75
2024/01/18 12:19:37;;;;;;;2.42;1.55;;;5.30;99.90;;;;;;6122810;23;20009;-75
2024/01/18 12:22:15;;;;;;;4.22;1.20;;;5.80;99.90;;;;;;6122963;23;20093;-75
2024/01/18 12:24:41;;;;;;;3.00;1.02;;;5.60;99.90;;;;;;6122120;23;20049;-75
2024/01/18 12:27:07;;;;;;;1.90;1.00;;;5.10;99.90;;;;;;6122803;23;20022;-76
2024/01/18 12:29:36;;;;;;;3.58;1.20;;;4.70;99.90;;;;;;6122531;23;20049;-75
2024/01/18 12:32:02;;;;;;;3.25;0.98;;;4.20;99.90;;;;;;6122427;23;20483;-75
2024/01/18 12:34:29;;;;;;;2.40;1.08;;;3.80;99.90;;;;;;6122834;23;20017;-75
2024/01/18 12:36:56;;;;;;;5.05;1.50;;;3.50;99.90;;;;;;6098786;23;20029;-75
2024/01/18 12:39:21;;;;;;;2.55;0.95;;;3.30;99.90;;;;;;6124321;23;20018;-75
2024/01/18 12:41:54;;;;;;;3.78;1.08;;;3.20;99.90;;;;;;6124182;23;20103;-75